Time;durP1;ratioP1;P1;durP2;ratioP2;P2;SDS_P1;SDS_P2;PMS_P1;PMS_P2;Temp;Humidity;BMP_temperature;BMP_pressure;BME280_temperature;BME280_humidity;BME280_pressure;Samples;Min_cycle;Max_cycle;Signal;HPM_P1;HPM_P2
2023/07/15 00:00:52;;;;;;;6.63;4.03;;;19.30;99.90;;;;;;5108876;27;20031;-81
2023/07/15 00:03:18;;;;;;;5.82;3.78;;;19.30;99.90;;;;;;5101751;27;20035;-81
2023/07/15 00:05:45;;;;;;;5.97;4.03;;;19.30;99.90;;;;;;5122921;27;20042;-81
2023/07/15 00:08:11;;;;;;;4.90;3.78;;;19.30;99.90;;;;;;5130381;27;20039;-81
2023/07/15 00:10:41;;;;;;;6.40;3.83;;;19.30;99.90;;;;;;5101526;27;20426;-81
2023/07/15 00:13:15;;;;;;;5.03;3.70;;;19.20;99.90;;;;;;5085166;27;20046;-81
2023/07/15 00:15:44;;;;;;;5.97;3.88;;;19.20;99.90;;;;;;5090808;27;20149;-81
2023/07/15 00:18:12;;;;;;;5.82;3.88;;;19.20;99.90;;;;;;5101759;27;20050;-81
2023/07/15 00:20:38;;;;;;;6.30;4.00;;;19.20;99.90;;;;;;5092062;27;20039;-81
2023/07/15 00:23:24;;;;;;;5.93;4.07;;;19.10;99.90;;;;;;5098503;27;20111;-81
2023/07/15 00:25:51;;;;;;;7.97;3.80;;;19.10;99.90;;;;;;5089386;27;20046;-81
2023/07/15 00:28:21;;;;;;;4.80;3.33;;;19.10;99.90;;;;;;5124529;27;20122;-81
2023/07/15 00:30:50;;;;;;;7.65;4.22;;;19.10;99.90;;;;;;5092476;27;20038;-81
2023/07/15 00:33:16;;;;;;;5.88;4.07;;;19.10;99.90;;;;;;5097872;27;20039;-81
2023/07/15 00:35:45;;;;;;;6.18;4.00;;;19.10;99.90;;;;;;5120308;27;20027;-81
2023/07/15 00:38:12;;;;;;;7.30;3.85;;;19.10;99.90;;;;;;5084757;27;20516;-81
2023/07/15 00:40:43;;;;;;;5.53;4.03;;;19.00;99.90;;;;;;5122332;27;20608;-81
2023/07/15 00:43:47;;;;;;;4.70;3.70;;;19.00;99.90;;;;;;5094925;27;20101;-81
2023/07/15 00:46:19;;;;;;;6.55;4.03;;;19.00;99.90;;;;;;5104287;27;20524;-81
2023/07/15 00:49:21;;;;;;;5.43;3.75;;;19.00;99.90;;;;;;5131052;27;20111;-81
2023/07/15 00:52:01;;;;;;;5.57;3.88;;;19.00;99.90;;;;;;5096108;27;20100;-81
2023/07/15 00:54:39;;;;;;;4.18;3.63;;;18.90;99.90;;;;;;5122209;27;20069;-81
2023/07/15 00:57:07;;;;;;;6.18;3.40;;;19.00;99.90;;;;;;5111593;27;20517;-81
2023/07/15 00:59:34;;;;;;;5.82;3.53;;;18.90;99.90;;;;;;5096957;27;20497;-81
2023/07/15 01:02:04;;;;;;;6.43;3.75;;;18.90;99.90;;;;;;5096842;27;20042;-81
2023/07/15 01:04:30;;;;;;;4.20;3.25;;;19.00;99.90;;;;;;5100658;27;20070;-81
2023/07/15 01:06:58;;;;;;;4.45;3.22;;;19.00;99.90;;;;;;5087647;27;20097;-81
2023/07/15 01:09:25;;;;;;;4.93;3.30;;;19.10;99.90;;;;;;5096698;27;20059;-81
2023/07/15 01:11:50;;;;;;;6.93;4.07;;;19.10;99.90;;;;;;5099363;27;20049;-81
2023/07/15 01:14:17;;;;;;;7.82;3.45;;;19.20;99.90;;;;;;5103205;27;20031;-80
2023/07/15 01:16:42;;;;;;;5.68;3.30;;;19.20;99.90;;;;;;5091173;27;20039;-81
2023/07/15 01:19:08;;;;;;;5.03;3.42;;;19.30;99.90;;;;;;5088615;27;20533;-81
2023/07/15 01:21:35;;;;;;;10.13;3.20;;;19.30;99.90;;;;;;5118790;27;20042;-81
2023/07/15 01:24:06;;;;;;;5.47;3.00;;;19.30;99.90;;;;;;5104282;27;20425;-81
2023/07/15 01:26:32;;;;;;;4.00;3.00;;;19.40;99.90;;;;;;5114230;27;20775;-81
2023/07/15 01:28:58;;;;;;;4.43;2.90;;;19.40;99.90;;;;;;5102501;27;20043;-81
2023/07/15 01:31:25;;;;;;;4.75;2.67;;;19.40;99.90;;;;;;5100306;27;20657;-81
2023/07/15 01:33:52;;;;;;;6.75;3.13;;;19.40;99.90;;;;;;5104561;27;20502;-81
2023/07/15 01:36:18;;;;;;;6.38;3.20;;;19.40;99.90;;;;;;5092072;27;20126;-80
2023/07/15 01:38:43;;;;;;;5.35;3.55;;;19.40;99.90;;;;;;5094172;27;20039;-81
2023/07/15 01:41:09;;;;;;;4.57;2.97;;;19.40;99.90;;;;;;5101153;27;20724;-81
2023/07/15 01:43:35;;;;;;;4.07;2.92;;;19.40;99.90;;;;;;5125426;27;20469;-81
2023/07/15 01:46:01;;;;;;;5.00;3.03;;;19.50;99.90;;;;;;5080973;27;20067;-81
2023/07/15 01:48:27;;;;;;;6.38;3.58;;;19.50;99.90;;;;;;5098774;27;20417;-81
2023/07/15 01:50:52;;;;;;;7.10;3.13;;;19.50;99.90;;;;;;5100219;27;20042;-81
2023/07/15 01:53:18;;;;;;;4.55;2.80;;;19.60;99.90;;;;;;5109383;27;20391;-81
2023/07/15 01:55:44;;;;;;;5.25;2.63;;;19.70;99.90;;;;;;5103889;27;20050;-81
2023/07/15 01:58:10;;;;;;;7.32;2.85;;;19.70;99.90;;;;;;5118446;27;20036;-81
2023/07/15 02:00:35;;;;;;;5.00;2.80;;;19.80;99.90;;;;;;5130816;27;20402;-81
2023/07/15 02:03:01;;;;;;;5.50;3.00;;;19.80;99.90;;;;;;5104700;27;20566;-81
2023/07/15 02:05:27;;;;;;;4.22;2.60;;;19.90;99.90;;;;;;5113128;27;20523;-81
2023/07/15 02:07:56;;;;;;;6.50;2.80;;;20.00;99.90;;;;;;5096239;27;20462;-81
2023/07/15 02:10:23;;;;;;;7.68;2.85;;;20.00;99.90;;;;;;5096945;27;20364;-81
2023/07/15 02:12:48;;;;;;;4.45;2.78;;;20.00;99.90;;;;;;5091321;27;20147;-81
2023/07/15 02:15:14;;;;;;;3.83;2.53;;;20.00;99.90;;;;;;5110998;27;20500;-81
2023/07/15 02:17:40;;;;;;;3.72;2.50;;;20.00;99.90;;;;;;5084762;27;20031;-81
2023/07/15 02:20:07;;;;;;;4.40;2.67;;;20.20;99.90;;;;;;5090461;27;20042;-81
2023/07/15 02:22:35;;;;;;;4.20;2.42;;;20.20;99.90;;;;;;5105142;27;20035;-81
2023/07/15 02:25:01;;;;;;;5.68;2.45;;;20.10;99.90;;;;;;5106011;27;20042;-81
2023/07/15 02:27:27;;;;;;;5.47;2.75;;;20.10;99.90;;;;;;5125756;27;20046;-81
2023/07/15 02:29:52;;;;;;;4.10;2.70;;;20.00;99.90;;;;;;5130771;27;20050;-81
2023/07/15 02:32:39;;;;;;;4.35;2.30;;;20.00;99.90;;;;;;5106640;27;20027;-81
2023/07/15 02:35:08;;;;;;;6.55;2.70;;;20.00;99.90;;;;;;5100588;27;20068;-81
2023/07/15 02:37:35;;;;;;;4.30;2.50;;;20.00;99.90;;;;;;5088445;27;20123;-81
2023/07/15 02:40:01;;;;;;;4.25;2.63;;;20.00;99.90;;;;;;5100843;27;20180;-81
2023/07/15 02:42:27;;;;;;;3.40;2.25;;;20.00;99.90;;;;;;5105123;27;20157;-81
2023/07/15 02:44:52;;;;;;;3.75;2.40;;;20.00;99.90;;;;;;5107158;27;20129;-81
2023/07/15 02:47:18;;;;;;;6.13;2.75;;;20.00;99.90;;;;;;5114157;27;20039;-81
2023/07/15 02:49:43;;;;;;;5.75;2.88;;;20.00;99.90;;;;;;5091563;27;20489;-81
2023/07/15 02:52:12;;;;;;;4.18;2.80;;;20.00;99.90;;;;;;5086391;27;20034;-81
2023/07/15 02:54:37;;;;;;;4.40;2.60;;;20.10;99.90;;;;;;5101684;27;20098;-81
2023/07/15 02:57:03;;;;;;;4.18;2.30;;;20.10;99.90;;;;;;5100652;27;20039;-81
2023/07/15 02:59:29;;;;;;;5.60;2.40;;;20.00;99.90;;;;;;5128898;27;20089;-81
2023/07/15 03:01:55;;;;;;;5.43;2.67;;;20.00;99.90;;;;;;5092970;27;20058;-81
2023/07/15 03:04:20;;;;;;;3.65;2.55;;;20.00;99.90;;;;;;5104066;27;20046;-81
2023/07/15 03:06:46;;;;;;;5.25;2.70;;;19.90;99.90;;;;;;5107284;27;20088;-81
2023/07/15 03:09:11;;;;;;;4.55;2.58;;;19.80;99.90;;;;;;5086609;27;20067;-81
2023/07/15 03:11:37;;;;;;;4.25;2.58;;;19.80;99.90;;;;;;5116367;27;20028;-83
2023/07/15 03:14:03;;;;;;;3.55;2.50;;;19.80;99.90;;;;;;5104276;27;20039;-81
2023/07/15 03:16:30;;;;;;;5.43;2.75;;;19.70;99.90;;;;;;5131248;27;21020;-81
2023/07/15 03:18:55;;;;;;;5.18;2.58;;;19.70;99.90;;;;;;5109826;27;20505;-81
2023/07/15 03:21:21;;;;;;;5.80;2.60;;;19.70;99.90;;;;;;5088756;27;20046;-81
2023/07/15 03:23:47;;;;;;;5.85;3.13;;;19.60;99.90;;;;;;5085133;27;20066;-81
2023/07/15 03:26:12;;;;;;;3.47;2.40;;;19.60;99.90;;;;;;5090852;27;20031;-81
2023/07/15 03:28:38;;;;;;;6.13;2.70;;;19.50;99.90;;;;;;5105137;27;20130;-81
2023/07/15 03:31:04;;;;;;;5.07;2.70;;;19.60;99.90;;;;;;5103218;27;20035;-81
2023/07/15 03:33:30;;;;;;;4.30;2.22;;;19.50;99.90;;;;;;5087840;27;20093;-81
2023/07/15 03:35:58;;;;;;;5.50;2.80;;;19.50;99.90;;;;;;5104773;27;20035;-81
2023/07/15 03:38:23;;;;;;;4.22;2.30;;;19.40;99.90;;;;;;5101432;27;20063;-81
2023/07/15 03:40:50;;;;;;;3.85;2.55;;;19.40;99.90;;;;;;5090475;27;20138;-81
2023/07/15 03:43:16;;;;;;;2.97;2.20;;;19.40;99.90;;;;;;5128631;27;20648;-81
2023/07/15 03:45:42;;;;;;;3.63;2.72;;;19.30;99.90;;;;;;5102135;27;20087;-81
2023/07/15 03:48:08;;;;;;;4.50;2.83;;;19.40;99.90;;;;;;5117372;27;20114;-81
2023/07/15 03:50:35;;;;;;;7.35;2.83;;;19.40;99.90;;;;;;5113043;27;20069;-81
2023/07/15 03:53:01;;;;;;;4.20;2.40;;;19.40;99.90;;;;;;5104919;27;20186;-81
2023/07/15 03:55:26;;;;;;;6.25;2.42;;;19.30;99.90;;;;;;5119485;27;20130;-81
2023/07/15 03:57:52;;;;;;;7.13;2.70;;;19.20;99.90;;;;;;5114085;27;20190;-81
2023/07/15 04:00:18;;;;;;;3.67;2.63;;;19.20;99.90;;;;;;5099299;27;20022;-81
2023/07/15 04:02:53;;;;;;;2.97;2.30;;;19.20;99.90;;;;;;5103747;27;20035;-81
2023/07/15 04:05:18;;;;;;;5.07;2.60;;;19.20;99.90;;;;;;5102352;27;20515;-81
2023/07/15 04:07:44;;;;;;;7.45;2.67;;;19.20;99.90;;;;;;5105859;27;20211;-81
2023/07/15 04:10:11;;;;;;;5.15;2.70;;;19.20;99.90;;;;;;5088194;27;20104;-81
2023/07/15 04:12:36;;;;;;;3.53;2.55;;;19.10;99.90;;;;;;5111434;27;20036;-81
2023/07/15 04:15:03;;;;;;;5.28;2.40;;;19.20;99.90;;;;;;5102215;27;20522;-81
2023/07/15 04:17:31;;;;;;;3.35;2.30;;;19.20;99.90;;;;;;5105827;27;20047;-81
2023/07/15 04:19:57;;;;;;;3.83;2.53;;;19.20;99.90;;;;;;5126652;27;20398;-81
2023/07/15 04:22:23;;;;;;;6.85;2.60;;;19.20;99.90;;;;;;5097267;27;20039;-81
2023/07/15 04:24:49;;;;;;;5.93;2.88;;;19.20;99.90;;;;;;5111688;27;20035;-81
2023/07/15 04:27:15;;;;;;;4.57;3.28;;;19.20;99.90;;;;;;5122900;27;20073;-81
2023/07/15 04:29:40;;;;;;;5.25;2.55;;;19.20;99.90;;;;;;5107893;27;20040;-81
2023/07/15 04:32:15;;;;;;;5.15;2.40;;;19.20;99.90;;;;;;5100613;27;20049;-81
2023/07/15 04:34:40;;;;;;;5.22;2.55;;;19.30;99.90;;;;;;5096988;27;20053;-81
2023/07/15 04:37:06;;;;;;;3.20;2.63;;;19.30;99.90;;;;;;5092987;27;20031;-81
2023/07/15 04:39:31;;;;;;;3.30;2.33;;;19.40;99.90;;;;;;5122265;27;20054;-81
2023/07/15 04:41:57;;;;;;;5.20;2.85;;;19.50;99.90;;;;;;5098073;27;20135;-81
2023/07/15 04:44:23;;;;;;;4.47;2.67;;;19.60;99.90;;;;;;5106019;27;20150;-81
2023/07/15 04:46:49;;;;;;;4.57;2.53;;;19.60;99.90;;;;;;5095294;27;20280;-81
2023/07/15 04:49:15;;;;;;;5.47;2.35;;;19.70;99.90;;;;;;5109526;27;20285;-81
2023/07/15 04:51:41;;;;;;;5.53;2.20;;;19.80;99.90;;;;;;5104535;27;20141;-80
2023/07/15 04:54:06;;;;;;;4.05;2.50;;;20.00;99.90;;;;;;5099214;27;20038;-81
2023/07/15 04:56:33;;;;;;;5.32;2.50;;;20.10;99.90;;;;;;5100785;27;20039;-81
2023/07/15 04:58:59;;;;;;;3.05;2.30;;;20.20;99.90;;;;;;5120448;27;20064;-81
2023/07/15 05:01:25;;;;;;;5.43;2.40;;;20.10;99.90;;;;;;5105470;27;20058;-81
2023/07/15 05:03:51;;;;;;;5.97;2.55;;;20.20;99.90;;;;;;5106398;27;20046;-81
2023/07/15 05:06:21;;;;;;;6.35;2.58;;;20.30;99.90;;;;;;5092136;27;20035;-81
2023/07/15 05:08:47;;;;;;;6.53;2.75;;;20.40;99.90;;;;;;5098805;27;20033;-81
2023/07/15 05:11:15;;;;;;;5.82;2.45;;;20.40;99.90;;;;;;5087325;27;20379;-81
2023/07/15 05:13:41;;;;;;;2.90;2.13;;;20.60;99.90;;;;;;5087546;27;20043;-81
2023/07/15 05:16:07;;;;;;;6.28;2.88;;;20.60;99.90;;;;;;5107747;27;20642;-81
2023/07/15 05:18:32;;;;;;;3.80;2.33;;;20.60;99.90;;;;;;5084640;27;20027;-81
2023/07/15 05:21:01;;;;;;;4.00;2.70;;;20.60;99.90;;;;;;5090656;27;20452;-81
2023/07/15 05:23:31;;;;;;;4.50;2.40;;;20.60;99.90;;;;;;5093788;27;20048;-81
2023/07/15 05:26:00;;;;;;;3.15;2.40;;;20.80;99.90;;;;;;5104196;27;20430;-81
2023/07/15 05:28:32;;;;;;;5.70;2.72;;;20.80;99.90;;;;;;5116395;27;20039;-81
2023/07/15 05:31:02;;;;;;;3.20;2.53;;;20.80;99.90;;;;;;5109280;27;20038;-81
2023/07/15 05:33:28;;;;;;;4.70;2.55;;;20.80;99.90;;;;;;5092574;27;20164;-81
2023/07/15 05:35:55;;;;;;;4.82;2.70;;;20.90;99.90;;;;;;5095564;27;20087;-81
2023/07/15 05:38:25;;;;;;;3.80;2.53;;;21.00;99.90;;;;;;5084899;27;20486;-81
2023/07/15 05:40:52;;;;;;;4.95;3.00;;;21.00;99.90;;;;;;5101862;27;20039;-81
2023/07/15 05:43:19;;;;;;;3.95;2.50;;;21.10;99.90;;;;;;5099392;27;20078;-81
2023/07/15 05:45:46;;;;;;;4.60;2.80;;;21.00;99.90;;;;;;5090223;27;20079;-81
2023/07/15 05:48:11;;;;;;;6.57;2.50;;;21.20;99.90;;;;;;5083985;27;20539;-81
2023/07/15 05:50:37;;;;;;;4.20;2.70;;;21.20;99.90;;;;;;5104407;27;20039;-81
2023/07/15 05:53:04;;;;;;;4.20;2.38;;;21.30;99.90;;;;;;5122151;27;20096;-81
2023/07/15 05:55:33;;;;;;;4.68;2.35;;;21.40;99.90;;;;;;5131417;27;20089;-81
2023/07/15 05:58:01;;;;;;;5.80;2.53;;;21.40;99.90;;;;;;5089194;27;20299;-81
2023/07/15 06:00:30;;;;;;;5.78;2.67;;;21.50;99.90;;;;;;5102610;27;20042;-81
2023/07/15 06:02:55;;;;;;;3.95;2.55;;;21.60;99.90;;;;;;5102838;27;20031;-81
2023/07/15 06:05:21;;;;;;;6.85;2.80;;;21.70;99.90;;;;;;5099273;27;20103;-81
2023/07/15 06:07:48;;;;;;;6.18;3.00;;;21.70;99.90;;;;;;5122683;27;20110;-81
2023/07/15 06:10:14;;;;;;;3.95;2.42;;;21.80;99.90;;;;;;5092392;27;20034;-81
2023/07/15 06:12:41;;;;;;;5.30;2.88;;;21.90;99.90;;;;;;5087972;27;20038;-81
2023/07/15 06:15:07;;;;;;;3.65;2.42;;;22.00;99.90;;;;;;5087205;27;20047;-81
2023/07/15 06:17:32;;;;;;;5.15;2.45;;;22.10;99.90;;;;;;5108567;27;20483;-81
2023/07/15 06:19:58;;;;;;;5.13;2.63;;;22.20;99.90;;;;;;5104706;27;20335;-81
2023/07/15 06:22:26;;;;;;;3.60;2.10;;;22.50;99.90;;;;;;5112324;27;20046;-81
2023/07/15 06:24:52;;;;;;;4.22;2.40;;;22.60;99.90;;;;;;5090692;27;20039;-81
2023/07/15 06:27:18;;;;;;;4.05;2.58;;;22.70;99.90;;;;;;5103830;27;20060;-82
2023/07/15 06:29:45;;;;;;;6.03;2.50;;;22.70;99.90;;;;;;5103999;27;20085;-81
2023/07/15 06:32:11;;;;;;;4.90;2.38;;;22.70;99.90;;;;;;5089356;27;20047;-81
2023/07/15 06:34:36;;;;;;;4.95;2.33;;;22.70;99.90;;;;;;5090525;27;20495;-81
2023/07/15 06:37:02;;;;;;;3.35;2.50;;;22.60;99.90;;;;;;5097059;27;20028;-81
2023/07/15 06:39:28;;;;;;;3.88;2.35;;;22.70;99.90;;;;;;5093158;27;20508;-81
2023/07/15 06:41:53;;;;;;;3.55;2.22;;;22.80;99.90;;;;;;5087739;27;20034;-81
2023/07/15 06:44:19;;;;;;;4.28;2.10;;;23.00;99.90;;;;;;5115724;27;20531;-81
2023/07/15 06:46:44;;;;;;;4.32;2.60;;;23.10;99.90;;;;;;5108650;27;20085;-81
2023/07/15 06:49:10;;;;;;;3.33;2.00;;;23.20;99.90;;;;;;5116784;27;20043;-81
2023/07/15 06:51:36;;;;;;;4.63;2.25;;;23.20;99.90;;;;;;5108426;27;20222;-81
2023/07/15 06:54:01;;;;;;;4.60;2.58;;;23.50;99.90;;;;;;5106150;27;20039;-81
2023/07/15 06:56:28;;;;;;;2.50;2.03;;;23.50;99.90;;;;;;5110184;27;20461;-82
2023/07/15 06:58:54;;;;;;;5.22;2.22;;;23.50;99.90;;;;;;5091546;27;20035;-81
2023/07/15 07:01:19;;;;;;;2.72;2.20;;;23.50;99.90;;;;;;5104637;27;20034;-81
2023/07/15 07:03:45;;;;;;;3.63;2.13;;;23.80;99.90;;;;;;5097921;27;20042;-82
2023/07/15 07:06:11;;;;;;;3.33;2.03;;;23.90;99.90;;;;;;5101152;27;20080;-81
2023/07/15 07:08:36;;;;;;;5.72;2.17;;;23.90;99.90;;;;;;5081494;27;20082;-81
2023/07/15 07:11:02;;;;;;;5.40;1.90;;;24.00;99.90;;;;;;5109036;27;20046;-81
2023/07/15 07:13:28;;;;;;;4.30;2.15;;;24.10;99.90;;;;;;5126096;27;20054;-81
2023/07/15 07:15:58;;;;;;;5.65;2.00;;;24.00;99.90;;;;;;5108566;27;20047;-82
2023/07/15 07:18:24;;;;;;;2.75;2.05;;;24.00;99.90;;;;;;5098817;27;20874;-81
2023/07/15 07:21:01;;;;;;;5.72;2.35;;;24.20;99.90;;;;;;5102795;27;20095;-81
2023/07/15 07:23:27;;;;;;;3.85;2.03;;;24.20;99.90;;;;;;5110078;27;20035;-81
2023/07/15 07:25:53;;;;;;;3.08;2.00;;;24.40;99.90;;;;;;5091937;27;20035;-81
2023/07/15 07:28:26;;;;;;;2.78;1.77;;;24.40;99.90;;;;;;5105772;27;20039;-81
2023/07/15 07:30:51;;;;;;;5.43;2.05;;;24.40;99.90;;;;;;5098361;27;20051;-81
2023/07/15 07:33:18;;;;;;;3.22;1.88;;;24.50;99.90;;;;;;5111508;27;20116;-81
2023/07/15 07:35:47;;;;;;;3.95;2.15;;;24.30;99.90;;;;;;5097002;27;20036;-81
2023/07/15 07:38:13;;;;;;;3.40;2.17;;;24.30;99.90;;;;;;5125090;27;20100;-81
2023/07/15 07:40:39;;;;;;;3.28;2.08;;;24.10;99.90;;;;;;5097830;27;20490;-81
2023/07/15 07:43:07;;;;;;;2.72;1.85;;;24.30;99.90;;;;;;5088037;27;20134;-81
2023/07/15 07:45:33;;;;;;;2.35;1.70;;;24.20;99.90;;;;;;5097007;27;20910;-81
2023/07/15 07:47:59;;;;;;;4.03;1.73;;;24.30;99.90;;;;;;5091418;27;20042;-81
2023/07/15 07:50:26;;;;;;;6.25;2.22;;;24.50;99.90;;;;;;5103299;27;20046;-81
2023/07/15 07:52:52;;;;;;;3.85;2.10;;;24.70;99.90;;;;;;5104006;27;20042;-81
2023/07/15 07:55:17;;;;;;;3.20;1.88;;;25.10;99.90;;;;;;5111831;27;20031;-81
2023/07/15 07:57:43;;;;;;;5.63;2.10;;;25.20;99.90;;;;;;5098941;27;20108;-81
2023/07/15 08:00:09;;;;;;;3.58;2.00;;;25.50;99.90;;;;;;5125602;27;20518;-81
2023/07/15 08:02:35;;;;;;;2.78;1.63;;;25.30;99.90;;;;;;5090197;27;20497;-81
2023/07/15 08:05:00;;;;;;;3.33;1.60;;;25.10;99.90;;;;;;5085904;27;20047;-81
2023/07/15 08:07:26;;;;;;;2.85;1.70;;;25.00;99.90;;;;;;5105596;27;20134;-81
2023/07/15 08:09:52;;;;;;;3.10;1.60;;;25.10;99.90;;;;;;5091255;27;20050;-81
2023/07/15 08:12:18;;;;;;;2.28;1.70;;;25.00;99.90;;;;;;5106213;27;20519;-81
2023/07/15 08:14:43;;;;;;;4.78;2.17;;;24.80;99.90;;;;;;5111158;27;20146;-81
2023/07/15 08:17:09;;;;;;;1.75;1.42;;;25.10;99.90;;;;;;5086201;27;20054;-82
2023/07/15 08:19:35;;;;;;;2.30;1.60;;;24.70;99.90;;;;;;5089471;27;20379;-81
2023/07/15 08:22:00;;;;;;;2.45;1.77;;;24.90;99.90;;;;;;5084737;27;20039;-81
2023/07/15 08:24:26;;;;;;;4.28;1.83;;;25.10;99.90;;;;;;5085803;27;20035;-82
2023/07/15 08:26:52;;;;;;;4.45;1.98;;;25.30;99.90;;;;;;5125501;27;20113;-82
2023/07/15 08:29:18;;;;;;;3.38;1.80;;;25.30;99.90;;;;;;5095334;27;20185;-82
2023/07/15 08:31:43;;;;;;;2.00;1.70;;;25.40;99.90;;;;;;5096648;27;20090;-82
2023/07/15 08:34:09;;;;;;;4.07;1.70;;;25.60;99.90;;;;;;5110151;27;20258;-81
2023/07/15 08:36:36;;;;;;;3.80;2.10;;;25.50;99.90;;;;;;5107398;27;20039;-82
2023/07/15 08:39:02;;;;;;;2.38;1.90;;;25.40;99.90;;;;;;5110993;27;20125;-81
2023/07/15 08:41:27;;;;;;;3.42;1.70;;;25.60;99.90;;;;;;5108063;27;20081;-81
2023/07/15 08:43:56;;;;;;;2.42;1.80;;;25.50;99.90;;;;;;5086396;27;20083;-81
2023/07/15 08:46:30;;;;;;;2.00;1.73;;;25.90;99.90;;;;;;5098224;27;20461;-81
2023/07/15 08:48:57;;;;;;;2.95;2.10;;;25.70;99.90;;;;;;5100577;27;20043;-82
2023/07/15 08:51:31;;;;;;;4.03;2.00;;;26.00;99.90;;;;;;5094795;27;20400;-82
2023/07/15 08:53:59;;;;;;;2.35;1.80;;;25.80;99.90;;;;;;5095538;27;20558;-81
2023/07/15 08:56:25;;;;;;;2.75;1.80;;;25.80;99.90;;;;;;5081747;27;20043;-82
2023/07/15 08:58:52;;;;;;;2.97;1.42;;;26.00;99.90;;;;;;5104443;27;20071;-81
2023/07/15 09:01:17;;;;;;;2.85;1.80;;;25.80;99.90;;;;;;5109001;27;20299;-82
2023/07/15 09:03:43;;;;;;;3.25;1.33;;;26.10;99.90;;;;;;5106821;27;20281;-81
2023/07/15 09:06:09;;;;;;;2.13;1.30;;;25.80;99.90;;;;;;5119301;27;20352;-81
2023/07/15 09:08:35;;;;;;;1.85;1.33;;;25.60;99.90;;;;;;5097135;27;20115;-81
2023/07/15 09:11:02;;;;;;;1.52;1.35;;;25.60;99.90;;;;;;5101840;27;20043;-81
2023/07/15 09:13:35;;;;;;;3.75;2.05;;;25.50;99.90;;;;;;5117972;27;20122;-82
2023/07/15 09:16:01;;;;;;;3.63;1.50;;;25.80;99.90;;;;;;5088567;27;20123;-81
2023/07/15 09:18:27;;;;;;;2.28;1.33;;;26.00;99.90;;;;;;5100645;27;20038;-82
2023/07/15 09:21:08;;;;;;;2.47;2.05;;;26.20;99.90;;;;;;5090251;27;20415;-82
2023/07/15 09:23:34;;;;;;;3.42;1.48;;;26.50;99.90;;;;;;5088461;27;20186;-81
2023/07/15 09:26:00;;;;;;;1.52;1.30;;;26.70;99.90;;;;;;5117587;27;20073;-82
2023/07/15 09:28:26;;;;;;;3.97;1.40;;;26.60;99.90;;;;;;5102817;27;20039;-81
2023/07/15 09:30:52;;;;;;;2.00;1.63;;;26.70;99.90;;;;;;5124355;27;20035;-82
2023/07/15 09:33:39;;;;;;;2.30;1.63;;;26.80;99.90;;;;;;5094647;27;20044;-81
2023/07/15 09:36:06;;;;;;;1.67;1.42;;;26.70;99.90;;;;;;5116715;27;20035;-81
2023/07/15 09:38:38;;;;;;;3.10;1.73;;;26.40;99.90;;;;;;5096744;27;20036;-81
2023/07/15 09:41:08;;;;;;;2.65;1.60;;;26.10;99.90;;;;;;5109145;27;20118;-81
2023/07/15 09:43:48;;;;;;;3.42;1.88;;;26.00;99.90;;;;;;5091664;28;20056;-81
2023/07/15 09:46:16;;;;;;;2.63;1.70;;;26.20;99.90;;;;;;5080085;28;20044;-82
2023/07/15 09:48:43;;;;;;;2.40;1.80;;;26.50;99.90;;;;;;5082907;28;20043;-82
2023/07/15 09:51:15;;;;;;;4.07;1.40;;;26.90;99.90;;;;;;5088600;28;20046;-82
2023/07/15 09:53:51;;;;;;;3.80;1.90;;;26.80;99.90;;;;;;5098036;28;20183;-81
2023/07/15 09:56:31;;;;;;;2.20;1.60;;;26.80;99.90;;;;;;5095386;28;20036;-81
2023/07/15 09:59:06;;;;;;;2.50;1.75;;;26.80;99.90;;;;;;5087956;28;20039;-82
2023/07/15 10:01:37;;;;;;;3.03;2.00;;;27.20;99.90;;;;;;5101619;28;20032;-82
2023/07/15 10:04:24;;;;;;;3.83;1.80;;;26.90;99.90;;;;;;5074103;28;20481;-81
2023/07/15 10:06:54;;;;;;;3.05;1.90;;;27.80;99.90;;;;;;5094919;28;20035;-82
2023/07/15 10:09:21;;;;;;;2.53;1.92;;;27.90;99.90;;;;;;5097041;28;20032;-82
2023/07/15 10:11:48;;;;;;;3.85;2.00;;;27.30;99.90;;;;;;5086357;28;20059;-81
2023/07/15 10:14:14;;;;;;;2.85;2.00;;;27.30;99.90;;;;;;5079603;28;20044;-81
2023/07/15 10:16:40;;;;;;;2.42;2.00;;;27.20;99.90;;;;;;5105469;27;20375;-82
2023/07/15 10:19:39;;;;;;;3.65;2.03;;;27.30;99.90;;;;;;5096681;27;20032;-82
2023/07/15 10:22:04;;;;;;;2.70;1.92;;;27.70;99.90;;;;;;5090538;27;20122;-82
2023/07/15 10:24:30;;;;;;;3.75;1.98;;;28.10;99.90;;;;;;5107348;27;20540;-82
2023/07/15 10:26:56;;;;;;;3.05;2.05;;;28.60;99.90;;;;;;5097561;27;20042;-81
2023/07/15 10:29:24;;;;;;;3.53;2.00;;;28.70;1.00;;;;;;5100718;27;20038;-82
2023/07/15 10:32:12;;;;;;;2.40;1.45;;;28.70;99.90;;;;;;5101984;27;20036;-82
2023/07/15 10:34:52;;;;;;;2.65;1.58;;;29.00;99.90;;;;;;5094892;27;20471;-82
2023/07/15 10:37:19;;;;;;;1.95;1.52;;;29.20;99.90;;;;;;5099450;27;20039;-82
2023/07/15 10:39:46;;;;;;;3.45;1.75;;;29.20;1.00;;;;;;5088970;27;20035;-82
2023/07/15 10:42:14;;;;;;;2.53;1.55;;;28.90;99.90;;;;;;5104140;27;20411;-82
2023/07/15 10:44:44;;;;;;;3.92;1.60;;;29.00;99.90;;;;;;5091890;27;20046;-82
2023/07/15 10:47:10;;;;;;;2.05;1.40;;;28.80;77.90;;;;;;5105792;27;20039;-82
2023/07/15 10:49:36;;;;;;;2.25;1.63;;;28.90;1.00;;;;;;5091600;27;20074;-82
2023/07/15 10:52:05;;;;;;;2.92;1.60;;;28.40;1.00;;;;;;5110015;27;20086;-82
2023/07/15 10:54:35;;;;;;;2.28;1.60;;;28.60;99.90;;;;;;5101217;27;20122;-82
2023/07/15 10:57:15;;;;;;;2.60;1.67;;;28.80;99.90;;;;;;5087346;27;20443;-82
2023/07/15 10:59:47;;;;;;;2.67;1.52;;;28.50;99.90;;;;;;5083597;28;20040;-82
2023/07/15 11:02:13;;;;;;;5.00;1.60;;;28.30;45.70;;;;;;5102394;27;20032;-82
2023/07/15 11:04:40;;;;;;;1.85;1.40;;;28.50;1.00;;;;;;5098343;27;20032;-82
2023/07/15 11:07:10;;;;;;;3.35;1.60;;;28.50;1.00;;;;;;5086854;27;20545;-82
2023/07/15 11:09:40;;;;;;;1.98;1.40;;;28.90;99.90;;;;;;5085637;27;20088;-82
2023/07/15 11:12:11;;;;;;;2.58;1.52;;;28.20;99.90;;;;;;5104236;27;20375;-82
2023/07/15 11:14:43;;;;;;;3.88;1.63;;;28.00;99.90;;;;;;5091180;28;20043;-82
2023/07/15 11:17:09;;;;;;;2.80;1.38;;;27.80;99.90;;;;;;5102323;27;20048;-82
2023/07/15 11:19:35;;;;;;;5.45;1.30;;;27.90;99.90;;;;;;5107531;27;20043;-82
2023/07/15 11:22:07;;;;;;;1.98;1.40;;;27.60;58.40;;;;;;5098010;27;20470;-82
2023/07/15 11:24:33;;;;;;;3.15;1.40;;;27.50;1.00;;;;;;5088196;27;20036;-82
2023/07/15 11:27:00;;;;;;;1.50;1.38;;;27.50;99.90;;;;;;5107787;27;20063;-82
2023/07/15 11:29:25;;;;;;;1.33;1.00;;;27.70;99.90;;;;;;5100333;27;20042;-81
2023/07/15 11:31:56;;;;;;;2.28;1.30;;;28.00;99.90;;;;;;5107387;27;20035;-82
2023/07/15 11:34:23;;;;;;;1.15;1.00;;;28.90;99.90;;;;;;5098885;27;20852;-82
2023/07/15 11:36:50;;;;;;;2.08;1.40;;;28.80;99.90;;;;;;5094082;27;20074;-82
2023/07/15 11:39:16;;;;;;;1.50;1.00;;;28.40;99.90;;;;;;5097486;27;20042;-82
2023/07/15 11:41:43;;;;;;;1.90;1.10;;;27.80;99.90;;;;;;5087538;27;20031;-81
2023/07/15 11:44:14;;;;;;;3.92;1.30;;;27.50;99.90;;;;;;5098333;27;20489;-82
2023/07/15 11:46:45;;;;;;;2.90;1.40;;;27.70;99.90;;;;;;5101779;27;20150;-82
2023/07/15 11:49:12;;;;;;;4.80;1.27;;;27.50;99.90;;;;;;5086340;27;20043;-82
2023/07/15 11:51:43;;;;;;;3.13;1.40;;;27.40;1.00;;;;;;5090286;27;20558;-82
2023/07/15 11:54:11;;;;;;;1.70;1.20;;;27.60;99.90;;;;;;5101222;27;20047;-82
2023/07/15 11:56:39;;;;;;;3.35;1.20;;;27.80;1.00;;;;;;5097109;27;20032;-82
2023/07/15 11:59:23;;;;;;;2.28;1.23;;;27.60;1.00;;;;;;5091716;28;20040;-81
2023/07/15 12:01:52;;;;;;;1.42;1.33;;;27.30;1.00;;;;;;5103906;27;20574;-82
2023/07/15 12:04:21;;;;;;;1.52;1.33;;;26.80;99.90;;;;;;5103518;27;20411;-82
2023/07/15 12:06:52;;;;;;;2.50;1.30;;;26.90;13.20;;;;;;5101345;27;20940;-82
2023/07/15 12:09:19;;;;;;;3.80;1.30;;;27.00;99.90;;;;;;5104313;27;20360;-82
2023/07/15 12:11:46;;;;;;;1.92;1.40;;;27.70;99.90;;;;;;5092779;27;20079;-82
2023/07/15 12:14:13;;;;;;;1.65;1.23;;;28.10;78.50;;;;;;5108427;27;20511;-82
2023/07/15 12:16:40;;;;;;;2.95;1.50;;;28.50;99.90;;;;;;5108659;27;20474;-82
2023/07/15 12:19:08;;;;;;;2.70;1.58;;;29.60;99.90;;;;;;5079026;27;20035;-82
2023/07/15 12:21:34;;;;;;;1.95;1.40;;;29.20;1.00;;;;;;5086872;27;20100;-82
2023/07/15 12:23:59;;;;;;;3.30;1.40;;;29.60;1.00;;;;;;5108965;27;20400;-82
2023/07/15 12:26:25;;;;;;;2.53;1.30;;;29.40;99.90;;;;;;5080843;27;20047;-82
2023/07/15 12:28:52;;;;;;;5.95;1.48;;;30.10;63.80;;;;;;5106215;27;20044;-82
2023/07/15 12:31:18;;;;;;;1.65;1.35;;;30.20;99.90;;;;;;5106710;27;20509;-83
2023/07/15 12:33:45;;;;;;;4.50;1.60;;;30.40;99.90;;;;;;5078711;27;20119;-82
2023/07/15 12:36:13;;;;;;;2.65;1.60;;;29.70;1.00;;;;;;5108999;27;20039;-82
2023/07/15 12:38:39;;;;;;;9.02;1.60;;;29.90;1.00;;;;;;5096931;27;20490;-82
2023/07/15 12:41:06;;;;;;;1.95;1.65;;;29.40;1.00;;;;;;5096456;27;20446;-82
2023/07/15 12:43:32;;;;;;;3.75;1.55;;;30.10;29.50;;;;;;5090110;27;20051;-83
2023/07/15 12:46:04;;;;;;;2.42;1.30;;;31.20;99.90;;;;;;5104931;27;20187;-82
2023/07/15 12:48:30;;;;;;;2.50;1.20;;;31.10;99.90;;;;;;5105100;27;20517;-82
2023/07/15 12:50:56;;;;;;;1.88;1.35;;;30.80;99.90;;;;;;5097297;27;20047;-82